createdAt,value
2023-05-09T00:00:58.725Z,0.00
2023-05-09T00:01:58.785Z,0.00
2023-05-09T00:02:58.772Z,0.00
2023-05-09T00:03:58.799Z,0.00
2023-05-09T00:04:58.791Z,0.00
2023-05-09T00:05:58.800Z,1.99
2023-05-09T00:06:58.826Z,24.92
2023-05-09T00:07:58.880Z,25.02
2023-05-09T00:08:58.875Z,25.00
2023-05-09T00:09:58.892Z,25.00
2023-05-09T00:10:59.030Z,25.00
2023-05-09T00:11:58.937Z,25.24
2023-05-09T00:12:59.005Z,25.90
2023-05-09T00:13:58.985Z,25.83
2023-05-09T00:14:59.009Z,28.81
2023-05-09T00:15:59.048Z,25.60
2023-05-09T00:16:59.099Z,25.00
2023-05-09T00:17:59.170Z,26.20
2023-05-09T00:18:59.112Z,25.18
2023-05-09T00:19:59.129Z,25.00
2023-05-09T00:20:59.153Z,26.30
2023-05-09T00:21:59.186Z,26.10
2023-05-09T00:22:59.233Z,25.00
2023-05-09T00:23:59.234Z,25.00
2023-05-09T00:24:59.271Z,25.03
2023-05-09T00:25:59.313Z,26.72
2023-05-09T00:26:59.440Z,25.93
2023-05-09T00:27:59.340Z,25.31
2023-05-09T00:28:59.376Z,25.00
2023-05-09T00:29:59.401Z,25.00
2023-05-09T00:30:59.415Z,26.42
2023-05-09T00:31:59.509Z,25.73
2023-05-09T00:32:59.511Z,26.36
2023-05-09T00:33:59.543Z,26.34
2023-05-09T00:34:59.518Z,25.30
2023-05-09T00:35:59.549Z,25.40
2023-05-09T00:36:59.565Z,25.00
2023-05-09T00:37:59.597Z,26.18
2023-05-09T00:38:59.631Z,26.01
2023-05-09T00:39:59.646Z,27.33
2023-05-09T00:40:59.673Z,25.00
2023-05-09T00:41:59.701Z,25.00
2023-05-09T00:42:59.842Z,28.15
2023-05-09T00:43:59.747Z,25.96
2023-05-09T00:44:59.770Z,25.35
2023-05-09T00:45:59.823Z,26.01
2023-05-09T00:46:59.823Z,27.09
2023-05-09T00:47:59.882Z,26.30
2023-05-09T00:48:59.885Z,25.43
2023-05-09T00:49:59.901Z,26.90
2023-05-09T00:50:59.937Z,25.00
2023-05-09T00:51:59.966Z,26.68
2023-05-09T00:53:00.000Z,27.31
2023-05-09T00:54:00.038Z,27.11
2023-05-09T00:55:00.068Z,27.51
2023-05-09T00:56:00.172Z,27.48
2023-05-09T00:57:00.146Z,26.33
2023-05-09T00:58:00.164Z,25.10
2023-05-09T00:59:00.305Z,26.00
2023-05-09T01:00:00.229Z,26.58
2023-05-09T01:01:00.278Z,29.38
2023-05-09T01:02:00.274Z,27.81
2023-05-09T01:03:00.430Z,25.00
2023-05-09T01:04:00.329Z,26.83
2023-05-09T01:05:00.365Z,27.82
2023-05-09T01:06:00.399Z,26.43
2023-05-09T01:07:00.439Z,25.96
2023-05-09T01:08:00.830Z,26.21
2023-05-09T01:09:00.875Z,26.78
2023-05-09T01:10:00.868Z,26.41
2023-05-09T01:11:00.869Z,26.79
2023-05-09T01:12:00.874Z,27.11
2023-05-09T01:13:00.949Z,25.46
2023-05-09T01:14:00.873Z,26.81
2023-05-09T01:15:00.999Z,28.03
2023-05-09T01:16:00.906Z,29.67
2023-05-09T01:17:00.882Z,26.84
2023-05-09T01:18:00.933Z,27.48
2023-05-09T01:19:00.893Z,27.47
2023-05-09T01:20:00.882Z,27.35
2023-05-09T01:21:00.893Z,26.09
2023-05-09T01:22:00.887Z,25.42
2023-05-09T01:23:00.920Z,27.24
2023-05-09T01:24:00.962Z,25.59
2023-05-09T01:25:00.996Z,26.42
2023-05-09T01:26:01.071Z,29.10
2023-05-09T01:27:01.058Z,26.17
2023-05-09T01:28:01.093Z,27.57
2023-05-09T01:29:01.126Z,28.33
2023-05-09T01:30:01.166Z,27.84
2023-05-09T01:31:01.381Z,27.26
2023-05-09T01:32:01.222Z,26.32
2023-05-09T01:33:02.275Z,25.91
2023-05-09T01:34:01.304Z,27.61
2023-05-09T01:35:01.419Z,26.59
2023-05-09T01:36:01.367Z,27.54
2023-05-09T01:37:01.390Z,28.03
2023-05-09T01:38:01.411Z,30.25
2023-05-09T01:39:01.481Z,27.31
2023-05-09T01:40:01.499Z,28.10
2023-05-09T01:41:01.510Z,29.42
2023-05-09T01:42:01.546Z,25.73
2023-05-09T01:43:01.572Z,26.82
2023-05-09T01:44:01.621Z,25.34
2023-05-09T01:45:01.652Z,25.00
2023-05-09T01:46:01.669Z,26.81
2023-05-09T01:47:02.250Z,26.99
2023-05-09T01:48:02.165Z,26.68
2023-05-09T01:49:02.102Z,27.15
2023-05-09T01:50:02.105Z,25.66
2023-05-09T01:51:02.109Z,26.30
2023-05-09T01:52:02.109Z,27.34
2023-05-09T01:53:02.132Z,27.02
2023-05-09T01:54:02.118Z,26.84
2023-05-09T01:55:02.100Z,26.44
2023-05-09T01:56:02.100Z,27.48
2023-05-09T01:57:02.113Z,27.03
2023-05-09T01:58:02.101Z,26.43
2023-05-09T01:59:02.143Z,27.34
2023-05-09T02:00:02.132Z,25.53
2023-05-09T02:01:02.192Z,28.78
2023-05-09T02:02:02.278Z,26.90
2023-05-09T02:03:02.456Z,26.84
2023-05-09T02:04:02.274Z,27.83
2023-05-09T02:05:02.304Z,27.63
2023-05-09T02:06:02.340Z,27.42
2023-05-09T02:07:02.373Z,26.46
2023-05-09T02:08:02.416Z,26.62
2023-05-09T02:09:02.454Z,27.16
2023-05-09T02:10:02.502Z,28.11
2023-05-09T02:11:02.529Z,26.57
2023-05-09T02:12:02.556Z,27.11
2023-05-09T02:13:02.646Z,27.45
2023-05-09T02:14:02.634Z,25.00
2023-05-09T02:15:02.674Z,27.55
2023-05-09T02:16:02.713Z,26.44
2023-05-09T02:17:02.810Z,27.28
2023-05-09T02:18:02.823Z,25.85
2023-05-09T02:19:02.967Z,28.34
2023-05-09T02:20:02.856Z,27.26
2023-05-09T02:21:03.009Z,26.49
2023-05-09T02:22:02.951Z,27.46
2023-05-09T02:23:02.987Z,26.60
2023-05-09T02:24:03.020Z,27.13
2023-05-09T02:25:03.057Z,29.42
2023-05-09T02:26:03.100Z,26.78
2023-05-09T02:27:03.140Z,28.48
2023-05-09T02:28:03.185Z,29.22
2023-05-09T02:29:03.222Z,26.50
2023-05-09T02:30:03.251Z,29.02
2023-05-09T02:31:03.305Z,25.52
2023-05-09T02:32:03.373Z,25.00
2023-05-09T02:33:03.425Z,27.61
2023-05-09T02:34:03.414Z,29.30
2023-05-09T02:35:03.565Z,28.76
2023-05-09T02:36:03.501Z,25.67
2023-05-09T02:37:03.532Z,26.89
2023-05-09T02:38:03.573Z,26.44
2023-05-09T02:39:03.605Z,26.46
2023-05-09T02:40:03.646Z,26.48
2023-05-09T02:41:03.684Z,25.46
2023-05-09T02:42:03.713Z,26.49
2023-05-09T02:43:03.748Z,26.67
2023-05-09T02:44:03.801Z,25.77
2023-05-09T02:45:03.856Z,26.07
2023-05-09T02:46:03.909Z,28.60
2023-05-09T02:47:03.919Z,25.92
2023-05-09T02:48:06.243Z,26.21
2023-05-09T02:49:03.958Z,26.53
2023-05-09T02:50:03.952Z,26.79
2023-05-09T02:51:04.067Z,26.70
2023-05-09T02:52:03.944Z,27.41
2023-05-09T02:53:03.929Z,25.68
2023-05-09T02:54:03.943Z,25.63
2023-05-09T02:55:03.974Z,27.07
2023-05-09T02:56:03.922Z,28.16
2023-05-09T02:57:03.914Z,27.74
2023-05-09T02:58:13.568Z,28.28
2023-05-09T02:59:03.905Z,28.55
2023-05-09T03:00:03.899Z,29.28
2023-05-09T03:01:03.918Z,28.87
2023-05-09T03:02:03.891Z,27.56
2023-05-09T03:03:03.927Z,27.98
2023-05-09T03:04:03.866Z,27.40
2023-05-09T03:05:03.857Z,27.03
2023-05-09T03:06:03.846Z,25.87
2023-05-09T03:07:03.969Z,26.65
2023-05-09T03:08:03.832Z,30.11
2023-05-09T03:09:03.825Z,30.22
2023-05-09T03:10:03.822Z,27.24
2023-05-09T03:11:03.809Z,26.99
2023-05-09T03:12:03.856Z,28.03
2023-05-09T03:13:03.855Z,27.36
2023-05-09T03:14:03.792Z,26.89
2023-05-09T03:15:03.783Z,25.23
2023-05-09T03:16:03.824Z,25.31
2023-05-09T03:17:03.791Z,26.43
2023-05-09T03:18:03.819Z,25.58
2023-05-09T03:19:03.754Z,28.82
2023-05-09T03:20:04.487Z,28.22
2023-05-09T03:21:03.746Z,29.88
2023-05-09T03:22:03.740Z,25.34
2023-05-09T03:23:03.882Z,26.97
2023-05-09T03:24:03.715Z,28.28
2023-05-09T03:25:03.710Z,26.78
2023-05-09T03:26:03.704Z,28.04
2023-05-09T03:27:03.720Z,25.70
2023-05-09T03:28:03.711Z,26.82
2023-05-09T03:29:03.681Z,25.04
2023-05-09T03:30:03.701Z,27.93
2023-05-09T03:31:03.661Z,26.86
2023-05-09T03:32:03.735Z,28.37
2023-05-09T03:33:03.757Z,28.45
2023-05-09T03:34:03.758Z,28.54
2023-05-09T03:35:03.790Z,25.98
2023-05-09T03:36:03.832Z,27.66
2023-05-09T03:37:03.889Z,26.14
2023-05-09T03:38:03.899Z,27.03
2023-05-09T03:39:04.075Z,28.22
2023-05-09T03:40:03.977Z,27.90
2023-05-09T03:41:04.027Z,26.40
2023-05-09T03:42:04.097Z,25.64
2023-05-09T03:43:04.089Z,25.05
2023-05-09T03:44:04.144Z,27.98
2023-05-09T03:45:04.173Z,29.63
2023-05-09T03:46:04.194Z,25.47
2023-05-09T03:47:04.314Z,27.83
2023-05-09T03:48:04.371Z,26.22
2023-05-09T03:49:04.359Z,28.14
2023-05-09T03:50:04.342Z,27.29
2023-05-09T03:51:04.397Z,25.00
2023-05-09T03:52:04.473Z,25.75
2023-05-09T03:53:04.469Z,26.83
2023-05-09T03:54:04.512Z,29.15
2023-05-09T03:55:04.680Z,26.51
2023-05-09T03:56:05.286Z,27.23
2023-05-09T03:57:04.648Z,28.67
2023-05-09T03:58:04.675Z,25.60
2023-05-09T03:59:04.721Z,28.29
2023-05-09T04:00:04.759Z,29.44
2023-05-09T04:01:04.795Z,25.68
2023-05-09T04:02:04.896Z,28.26
2023-05-09T04:03:05.026Z,26.35
2023-05-09T04:04:05.020Z,26.91
2023-05-09T04:05:04.957Z,26.59
2023-05-09T04:06:05.008Z,27.94
2023-05-09T04:07:05.037Z,28.50
2023-05-09T04:08:05.082Z,29.18
2023-05-09T04:09:05.130Z,27.42
2023-05-09T04:10:05.156Z,28.51
2023-05-09T04:11:05.328Z,27.27
2023-05-09T04:12:05.240Z,26.44
2023-05-09T04:13:05.324Z,25.12
2023-05-09T04:14:05.359Z,28.88
2023-05-09T04:15:05.387Z,28.27
2023-05-09T04:16:05.429Z,26.03
2023-05-09T04:17:05.542Z,28.00
2023-05-09T04:18:05.603Z,28.11
2023-05-09T04:19:05.548Z,28.18
2023-05-09T04:20:05.613Z,27.25
2023-05-09T04:21:05.633Z,28.79
2023-05-09T04:22:05.683Z,27.49
2023-05-09T04:23:05.722Z,25.85
2023-05-09T04:24:05.759Z,25.71
2023-05-09T04:25:05.822Z,28.84
2023-05-09T04:26:05.859Z,27.56
2023-05-09T04:27:06.013Z,27.76
2023-05-09T04:28:05.955Z,26.79
2023-05-09T04:29:05.965Z,26.52
2023-05-09T04:30:06.023Z,27.70
2023-05-09T04:31:06.115Z,26.78
2023-05-09T04:32:06.112Z,28.43
2023-05-09T04:33:06.155Z,28.06
2023-05-09T04:34:06.181Z,25.00
2023-05-09T04:35:06.222Z,27.77
2023-05-09T04:36:06.277Z,27.61
2023-05-09T04:37:06.308Z,28.90
2023-05-09T04:38:06.450Z,25.14
2023-05-09T04:39:06.428Z,28.45
2023-05-09T04:40:06.435Z,27.03
2023-05-09T04:41:06.489Z,27.53
2023-05-09T04:42:06.564Z,26.81
2023-05-09T04:43:06.694Z,27.61
2023-05-09T04:44:06.967Z,29.29
2023-05-09T04:45:07.020Z,27.37
2023-05-09T04:46:07.038Z,27.45
2023-05-09T04:47:07.014Z,26.66
2023-05-09T04:48:07.086Z,27.16
2023-05-09T04:49:07.008Z,28.85
2023-05-09T04:50:07.007Z,27.07
2023-05-09T04:51:07.005Z,27.71
2023-05-09T04:52:07.010Z,27.62
2023-05-09T04:53:07.016Z,28.70
2023-05-09T04:54:07.016Z,27.96
2023-05-09T04:55:07.028Z,25.00
2023-05-09T04:56:07.073Z,25.73
2023-05-09T04:57:17.062Z,27.54
2023-05-09T04:58:07.103Z,27.87
2023-05-09T04:59:07.224Z,28.62
2023-05-09T05:00:07.113Z,29.29
2023-05-09T05:01:07.092Z,29.00
2023-05-09T05:02:07.114Z,27.06
2023-05-09T05:03:07.096Z,27.64
2023-05-09T05:04:07.059Z,26.16
2023-05-09T05:05:12.040Z,27.35
2023-05-09T05:06:07.046Z,27.77
2023-05-09T05:07:07.042Z,28.65
2023-05-09T05:08:07.030Z,29.38
2023-05-09T05:09:07.019Z,29.39
2023-05-09T05:10:07.016Z,28.17
2023-05-09T05:11:07.012Z,30.40
2023-05-09T05:12:09.187Z,26.77
2023-05-09T05:13:07.090Z,27.01
2023-05-09T05:14:07.026Z,27.34
2023-05-09T05:15:07.156Z,28.30
2023-05-09T05:16:08.118Z,27.69
2023-05-09T05:17:07.085Z,29.10
2023-05-09T05:18:07.072Z,28.34
2023-05-09T05:19:07.324Z,26.28
2023-05-09T05:20:07.030Z,28.38
2023-05-09T05:21:07.027Z,29.38
2023-05-09T05:22:07.031Z,27.19
2023-05-09T05:23:07.325Z,28.31
2023-05-09T05:24:07.023Z,34.75
2023-05-09T05:25:07.054Z,32.93
2023-05-09T05:26:07.110Z,31.73
2023-05-09T05:27:07.146Z,33.73
2023-05-09T05:28:07.208Z,36.63
2023-05-09T05:29:07.228Z,38.95
2023-05-09T05:30:07.263Z,40.43
2023-05-09T05:31:07.588Z,40.17
2023-05-09T05:32:08.140Z,43.02
2023-05-09T05:33:07.507Z,45.07
2023-05-09T05:34:07.426Z,43.33
2023-05-09T05:35:07.474Z,44.06
2023-05-09T05:36:07.502Z,44.73
2023-05-09T05:37:07.552Z,42.73
2023-05-09T05:38:08.117Z,44.10
2023-05-09T05:39:07.623Z,46.84
2023-05-09T05:40:07.665Z,47.47
2023-05-09T05:41:07.689Z,46.45
2023-05-09T05:42:08.096Z,46.71
2023-05-09T05:43:08.339Z,46.68
2023-05-09T05:44:08.122Z,50.43
2023-05-09T05:45:08.101Z,48.62
2023-05-09T05:46:08.106Z,56.74
2023-05-09T05:47:08.239Z,68.91
2023-05-09T05:48:08.393Z,67.54
2023-05-09T05:49:08.116Z,63.22
2023-05-09T05:50:08.100Z,64.95
2023-05-09T05:51:08.098Z,59.77
2023-05-09T05:52:08.106Z,59.56
2023-05-09T12:42:04.810Z,25.00
2023-05-09T12:43:05.804Z,25.00
2023-05-09T12:44:05.788Z,25.00
2023-05-09T12:45:06.426Z,25.00
2023-05-09T12:46:05.875Z,25.00
2023-05-09T12:47:05.966Z,24.79
2023-05-09T12:48:06.063Z,23.13
2023-05-09T12:49:06.043Z,25.33
2023-05-09T12:50:06.308Z,23.58
2023-05-09T12:51:09.375Z,25.00
2023-05-09T12:52:07.745Z,22.31
2023-05-09T12:53:06.131Z,21.28
2023-05-09T12:54:06.306Z,4.76
2023-05-09T12:55:06.316Z,0.00
2023-05-09T12:56:06.311Z,0.00
2023-05-09T12:57:06.336Z,0.00
2023-05-09T12:58:06.429Z,9.01
2023-05-09T12:59:06.305Z,25.19
2023-05-09T13:00:06.307Z,26.22
2023-05-09T13:01:06.312Z,25.90
2023-05-09T13:02:06.332Z,29.63
2023-05-09T13:03:06.415Z,26.24
2023-05-09T13:04:06.346Z,27.03
2023-05-09T13:05:06.308Z,28.23
2023-05-09T13:06:06.295Z,26.52
2023-05-09T13:07:06.305Z,25.48
2023-05-09T13:08:06.302Z,29.39
2023-05-09T13:09:06.530Z,27.70
2023-05-09T13:10:06.330Z,32.24
2023-05-09T13:11:15.622Z,29.03
2023-05-09T13:12:07.315Z,29.25
2023-05-09T13:13:09.653Z,29.31
2023-05-09T13:14:06.303Z,29.11
2023-05-09T13:15:06.417Z,28.76
2023-05-09T13:16:08.195Z,25.77
2023-05-09T13:17:06.393Z,27.21
2023-05-09T13:18:06.335Z,21.99
2023-05-09T13:19:06.306Z,18.15
2023-05-09T13:20:06.331Z,18.41
2023-05-09T13:21:06.314Z,16.04
2023-05-09T13:22:06.336Z,31.63
2023-05-09T13:23:06.267Z,25.44
2023-05-09T13:24:05.902Z,30.44
2023-05-09T13:25:06.321Z,25.35
2023-05-09T13:26:06.833Z,26.01
2023-05-09T13:27:06.814Z,29.49
2023-05-09T13:28:06.544Z,26.56
2023-05-09T13:29:06.464Z,29.64
2023-05-09T13:30:06.324Z,28.67
2023-05-09T13:31:06.982Z,33.27
2023-05-09T13:32:06.356Z,28.92
2023-05-09T13:33:23.833Z,31.05
2023-05-09T13:34:06.333Z,31.39
2023-05-09T13:35:06.334Z,31.52
2023-05-09T13:36:06.320Z,28.47
2023-05-09T13:37:06.347Z,27.87
2023-05-09T13:38:06.355Z,29.54
2023-05-09T13:39:06.303Z,30.24
2023-05-09T13:40:06.291Z,27.12
2023-05-09T13:41:06.345Z,30.40
2023-05-09T13:42:06.294Z,27.89
2023-05-09T13:43:06.275Z,31.34
2023-05-09T13:44:06.254Z,30.65
2023-05-09T13:45:06.363Z,28.63
2023-05-09T13:46:06.400Z,36.90
2023-05-09T13:47:06.237Z,31.38
2023-05-09T13:48:06.342Z,34.85
2023-05-09T13:49:06.223Z,33.18
2023-05-09T13:50:06.217Z,31.83
2023-05-09T13:51:06.205Z,37.61
2023-05-09T13:52:06.200Z,33.17
2023-05-09T13:53:06.195Z,36.22
2023-05-09T13:54:06.201Z,32.02
2023-05-09T13:55:06.184Z,35.69
2023-05-09T13:56:06.837Z,35.37
2023-05-09T13:57:06.182Z,39.63
2023-05-09T13:58:06.335Z,37.35
2023-05-09T13:59:06.834Z,34.80
2023-05-09T14:00:06.143Z,39.07
2023-05-09T14:01:06.487Z,36.61
2023-05-09T14:02:06.292Z,38.22
2023-05-09T14:03:06.320Z,38.66
2023-05-09T14:04:06.314Z,39.10
2023-05-09T14:05:06.331Z,36.51
2023-05-09T14:06:06.387Z,39.04
2023-05-09T14:07:06.450Z,39.24
2023-05-09T14:08:06.491Z,40.81
2023-05-09T14:09:06.538Z,39.58
2023-05-09T14:10:11.338Z,37.99
2023-05-09T14:11:06.653Z,38.47
2023-05-09T14:12:06.566Z,39.40
2023-05-09T14:13:06.622Z,39.37
2023-05-09T14:14:06.564Z,39.62
2023-05-09T14:15:06.548Z,41.81
2023-05-09T14:16:06.601Z,41.13
2023-05-09T14:17:06.662Z,42.76
2023-05-09T14:18:06.568Z,39.75
2023-05-09T14:19:06.543Z,41.40
2023-05-09T14:20:06.561Z,39.03
2023-05-09T14:21:06.507Z,42.56
2023-05-09T14:22:06.493Z,46.08
2023-05-09T14:23:06.487Z,42.06
2023-05-09T14:24:06.476Z,41.33
2023-05-09T14:25:06.486Z,44.13
2023-05-09T14:26:06.480Z,40.68
2023-05-09T14:27:06.468Z,42.24
2023-05-09T14:28:06.459Z,41.95
2023-05-09T14:29:06.453Z,42.34
2023-05-09T14:30:06.444Z,40.63
2023-05-09T14:31:06.469Z,40.87
2023-05-09T14:32:06.432Z,41.04
2023-05-09T14:33:06.545Z,42.54
2023-05-09T14:34:06.416Z,43.97
2023-05-09T14:35:06.493Z,43.77
2023-05-09T14:36:06.851Z,42.61
2023-05-09T14:37:06.424Z,41.62
2023-05-09T14:38:06.466Z,43.77
2023-05-09T14:39:06.516Z,45.72
2023-05-09T14:40:06.574Z,44.38
2023-05-09T14:41:06.616Z,43.90
2023-05-09T14:42:06.664Z,42.43
2023-05-09T14:43:06.714Z,42.49
2023-05-09T14:44:06.760Z,41.84
2023-05-09T14:45:06.824Z,45.69
2023-05-09T14:46:06.864Z,44.63
2023-05-09T14:47:06.920Z,44.68
2023-05-09T14:48:07.064Z,44.18
2023-05-09T14:49:07.235Z,44.55
2023-05-09T14:50:07.067Z,44.17
2023-05-09T14:51:07.121Z,43.10
2023-05-09T14:52:07.179Z,46.29
2023-05-09T14:53:07.212Z,44.63
2023-05-09T14:54:07.267Z,45.34
2023-05-09T14:55:07.369Z,45.63
2023-05-09T14:56:07.374Z,47.24
2023-05-09T14:57:07.470Z,44.73
2023-05-09T14:58:07.472Z,42.98
2023-05-09T14:59:07.509Z,45.23
2023-05-09T15:00:19.604Z,44.50
2023-05-09T15:01:07.579Z,44.83
2023-05-09T15:02:07.542Z,45.66
2023-05-09T15:03:07.555Z,45.85
2023-05-09T15:04:07.580Z,46.15
2023-05-09T15:05:07.651Z,45.71
2023-05-09T15:06:07.551Z,45.58
2023-05-09T15:07:07.506Z,49.59
2023-05-09T15:08:07.515Z,49.14
2023-05-09T15:09:07.487Z,49.53
2023-05-09T15:10:07.862Z,50.29
2023-05-09T15:11:07.494Z,47.09
2023-05-09T15:12:07.468Z,45.66
2023-05-09T15:13:07.477Z,47.53
2023-05-09T15:14:07.466Z,46.64
2023-05-09T15:15:07.459Z,48.45
2023-05-09T15:16:07.485Z,49.59
2023-05-09T15:17:07.462Z,48.36
2023-05-09T15:18:07.430Z,46.26
2023-05-09T15:19:07.429Z,44.76
2023-05-09T15:20:07.421Z,47.42
2023-05-09T15:21:07.541Z,45.91
2023-05-09T15:22:07.401Z,49.04
2023-05-09T15:23:07.450Z,44.90
2023-05-09T15:24:07.379Z,48.12
2023-05-09T15:25:07.370Z,47.79
2023-05-09T15:26:07.367Z,45.39
2023-05-09T15:27:07.358Z,48.01
2023-05-09T15:28:07.391Z,47.69
2023-05-09T15:29:07.350Z,46.85
2023-05-09T15:30:07.363Z,47.42
2023-05-09T15:31:07.474Z,46.71
2023-05-09T15:32:07.437Z,48.29
2023-05-09T15:33:07.566Z,45.75
2023-05-09T15:34:07.529Z,45.40
2023-05-09T15:35:07.556Z,49.81
2023-05-09T15:36:07.607Z,49.74
2023-05-09T15:37:07.772Z,49.47
2023-05-09T15:38:07.683Z,47.57
2023-05-09T15:39:07.702Z,46.80
2023-05-09T15:40:07.739Z,48.34
2023-05-09T15:41:07.780Z,46.87
2023-05-09T15:42:07.821Z,45.85
2023-05-09T15:43:08.475Z,48.51
2023-05-09T15:44:07.903Z,49.25
2023-05-09T15:45:07.922Z,50.16
2023-05-09T15:46:08.006Z,50.72
2023-05-09T15:47:07.998Z,52.43
2023-05-09T15:48:08.060Z,52.17
2023-05-09T15:49:08.052Z,49.83
2023-05-09T15:50:08.080Z,53.08
2023-05-09T15:51:08.117Z,50.26
2023-05-09T15:52:08.142Z,48.53
2023-05-09T15:53:08.222Z,49.35
2023-05-09T15:54:08.217Z,49.76
2023-05-09T15:55:08.253Z,50.98
2023-05-09T15:56:08.263Z,50.46
2023-05-09T15:57:08.294Z,50.00
2023-05-09T15:58:08.327Z,49.74
2023-05-09T15:59:08.362Z,52.53
2023-05-09T16:00:08.396Z,51.30
2023-05-09T16:01:08.488Z,50.62
2023-05-09T16:02:08.512Z,49.52
2023-05-09T16:03:08.604Z,50.74
2023-05-09T16:04:08.511Z,51.59
2023-05-09T16:05:08.544Z,48.67
2023-05-09T16:06:08.567Z,50.51
2023-05-09T16:07:08.607Z,50.10
2023-05-09T16:08:08.609Z,50.96
2023-05-09T16:09:08.766Z,52.22
2023-05-09T16:10:08.668Z,49.53
2023-05-09T16:11:08.699Z,50.52
2023-05-09T16:12:08.731Z,49.07
2023-05-09T16:13:08.822Z,50.21
2023-05-09T16:14:08.790Z,52.65
2023-05-09T16:15:08.795Z,50.91
2023-05-09T16:16:08.817Z,50.89
2023-05-09T16:17:08.836Z,53.30
2023-05-09T16:18:09.007Z,52.12
2023-05-09T16:19:08.879Z,52.38
2023-05-09T16:20:08.897Z,55.94
2023-05-09T16:21:08.918Z,52.57
2023-05-09T16:22:08.945Z,53.12
2023-05-09T16:23:08.958Z,50.98
2023-05-09T16:24:08.979Z,53.69
2023-05-09T16:25:09.132Z,50.93
2023-05-09T16:26:09.388Z,52.14
2023-05-09T16:27:09.441Z,52.69
2023-05-09T16:28:09.432Z,55.28
2023-05-09T16:29:09.445Z,52.71
2023-05-09T16:30:09.551Z,54.94
2023-05-09T16:31:09.446Z,53.80
2023-05-09T16:32:09.435Z,56.11
2023-05-09T16:33:09.511Z,54.13
2023-05-09T16:34:09.430Z,54.73
2023-05-09T16:35:09.436Z,53.00
2023-05-09T16:36:09.436Z,53.49
2023-05-09T16:37:09.432Z,56.87
2023-05-09T16:38:09.437Z,54.83
2023-05-09T16:39:09.428Z,56.12
2023-05-09T16:40:09.446Z,56.84
2023-05-09T16:41:09.564Z,55.20
2023-05-09T16:42:09.447Z,53.91
2023-05-09T16:43:09.448Z,57.34
2023-05-09T16:44:09.459Z,57.94
2023-05-09T16:45:09.503Z,55.61
2023-05-09T16:46:09.576Z,57.53
2023-05-09T16:47:09.536Z,54.63
2023-05-09T16:48:09.623Z,55.12
2023-05-09T16:49:09.576Z,52.31
2023-05-09T16:50:09.592Z,53.31
2023-05-09T16:51:09.618Z,51.97
2023-05-09T16:52:09.636Z,56.49
2023-05-09T16:53:09.654Z,55.45
2023-05-09T16:54:09.692Z,55.90
2023-05-09T16:55:09.750Z,55.21
2023-05-09T16:56:09.750Z,56.00
2023-05-09T16:57:09.897Z,54.62
2023-05-09T16:58:09.813Z,54.24
2023-05-09T16:59:09.836Z,53.63
2023-05-09T17:00:09.924Z,53.10
2023-05-09T17:01:09.954Z,56.79
2023-05-09T17:02:09.934Z,59.75
2023-05-09T17:03:09.969Z,58.39
2023-05-09T17:04:10.015Z,57.93
2023-05-09T17:05:09.989Z,54.04
2023-05-09T17:06:10.034Z,58.69
2023-05-09T17:07:10.059Z,56.95
2023-05-09T17:08:10.445Z,55.65
2023-05-09T17:09:10.455Z,57.01
2023-05-09T17:10:10.457Z,57.64
2023-05-09T17:11:10.475Z,58.60
2023-05-09T17:12:10.454Z,56.20
2023-05-09T17:13:10.577Z,54.35
2023-05-09T17:14:10.454Z,60.91
2023-05-09T17:15:10.459Z,56.71
2023-05-09T17:16:10.499Z,56.67
2023-05-09T17:17:10.493Z,55.52
2023-05-09T17:18:10.797Z,57.68
2023-05-09T17:19:10.471Z,56.86
2023-05-09T17:20:10.469Z,59.44
2023-05-09T17:21:10.496Z,62.48
2023-05-09T17:22:10.473Z,57.97
2023-05-09T17:23:10.463Z,56.34
2023-05-09T17:24:10.508Z,56.83
2023-05-09T17:25:10.537Z,57.96
2023-05-09T17:26:10.542Z,57.52
2023-05-09T17:27:10.561Z,54.90
2023-05-09T17:28:10.597Z,59.24
2023-05-09T17:29:10.742Z,57.02
2023-05-09T17:30:10.646Z,57.79
2023-05-09T17:31:10.718Z,57.75
2023-05-09T17:32:10.708Z,60.69
2023-05-09T17:33:10.743Z,57.56
2023-05-09T17:34:10.769Z,57.15
2023-05-09T17:35:10.799Z,57.29
2023-05-09T17:36:10.833Z,56.74
2023-05-09T17:37:10.867Z,56.92
2023-05-09T17:38:10.928Z,55.54
2023-05-09T17:39:10.939Z,56.59
2023-05-09T17:40:10.967Z,58.44
2023-05-09T17:41:11.001Z,57.97
2023-05-09T17:42:12.283Z,58.27
2023-05-09T17:43:11.068Z,57.73
2023-05-09T17:44:11.117Z,58.18
2023-05-09T17:45:11.245Z,59.92
2023-05-09T17:46:11.185Z,58.54
2023-05-09T17:47:11.184Z,59.22
2023-05-09T17:48:11.224Z,57.16
2023-05-09T17:49:11.249Z,59.54
2023-05-09T17:50:11.288Z,59.06
2023-05-09T17:51:11.319Z,56.52
2023-05-09T17:52:11.358Z,56.95
2023-05-09T17:53:11.389Z,59.58
2023-05-09T17:54:11.430Z,59.60
2023-05-09T17:55:11.475Z,58.23
2023-05-09T17:56:11.511Z,57.69
2023-05-09T17:57:11.548Z,56.86
2023-05-09T17:58:11.581Z,59.02
2023-05-09T17:59:11.603Z,59.49
2023-05-09T18:00:11.657Z,58.44
2023-05-09T18:01:11.855Z,59.45
2023-05-09T18:02:11.731Z,59.58
2023-05-09T18:03:11.859Z,54.78
2023-05-09T18:04:11.810Z,57.83
2023-05-09T18:05:11.861Z,57.53
2023-05-09T18:06:11.891Z,58.07
2023-05-09T18:07:11.934Z,59.23
2023-05-09T18:08:11.957Z,59.60
2023-05-09T18:09:11.991Z,56.37
2023-05-09T18:10:12.059Z,59.50
2023-05-09T18:11:12.075Z,56.02
2023-05-09T18:12:12.112Z,58.20
2023-05-09T18:13:12.269Z,57.91
2023-05-09T18:14:12.192Z,54.40
2023-05-09T18:15:12.232Z,55.80
2023-05-09T18:16:12.307Z,53.77
2023-05-09T18:17:12.636Z,54.92
2023-05-09T18:18:14.542Z,57.79
2023-05-09T18:19:12.340Z,61.93
2023-05-09T18:20:12.356Z,58.52
2023-05-09T18:21:12.320Z,54.81
2023-05-09T18:22:12.323Z,56.64
2023-05-09T18:23:12.310Z,57.82
2023-05-09T18:24:12.475Z,58.60
2023-05-09T18:25:12.304Z,58.21
2023-05-09T18:26:12.301Z,55.16
2023-05-09T18:27:12.288Z,55.12
2023-05-09T18:28:12.266Z,57.82
2023-05-09T18:29:12.273Z,59.02
2023-05-09T18:30:12.412Z,61.43
2023-05-09T18:31:12.309Z,59.50
2023-05-09T18:32:12.246Z,57.94
2023-05-09T18:33:12.364Z,57.30
2023-05-09T18:34:12.230Z,58.53
2023-05-09T18:35:12.220Z,56.17
2023-05-09T18:36:12.216Z,55.77
2023-05-09T18:37:12.210Z,57.92
2023-05-09T18:38:12.199Z,56.35
2023-05-09T18:39:12.230Z,57.82
2023-05-09T18:40:12.409Z,57.07
2023-05-09T18:41:12.319Z,59.74
2023-05-09T18:42:14.529Z,57.71
2023-05-09T18:43:12.356Z,58.00
2023-05-09T18:44:12.344Z,58.07
2023-05-09T18:45:12.343Z,59.39
2023-05-09T18:46:12.339Z,57.92
2023-05-09T18:47:12.520Z,57.29
2023-05-09T18:48:13.537Z,60.17
2023-05-09T18:49:12.425Z,56.48
2023-05-09T18:50:12.326Z,56.04
2023-05-09T18:51:12.301Z,56.31
2023-05-09T18:52:12.332Z,58.83
2023-05-09T18:53:12.370Z,57.06
2023-05-09T18:54:12.417Z,54.52
2023-05-09T18:55:12.466Z,56.25
2023-05-09T18:56:12.542Z,57.85
2023-05-09T18:57:12.570Z,54.86
2023-05-09T18:58:12.617Z,54.56
2023-05-09T18:59:12.668Z,52.74
2023-05-09T19:00:12.759Z,52.53
2023-05-09T19:01:12.791Z,53.39
2023-05-09T19:02:12.817Z,55.54
2023-05-09T19:03:12.844Z,52.57
2023-05-09T19:04:12.942Z,52.66
2023-05-09T19:05:13.066Z,56.03
2023-05-09T19:06:13.021Z,55.64
2023-05-09T19:07:13.051Z,53.38
2023-05-09T19:08:13.075Z,53.36
2023-05-09T19:09:13.139Z,54.38
2023-05-09T19:10:13.511Z,54.78
2023-05-09T19:11:13.221Z,59.36
2023-05-09T19:12:13.270Z,55.94
2023-05-09T19:13:16.070Z,54.09
2023-05-09T19:14:13.292Z,54.28
2023-05-09T19:15:13.312Z,54.50
2023-05-09T19:16:13.349Z,54.24
2023-05-09T19:17:13.342Z,53.19
2023-05-09T19:18:13.479Z,53.12
2023-05-09T19:19:13.371Z,55.21
2023-05-09T19:20:13.573Z,53.95
2023-05-09T19:21:13.393Z,52.49
2023-05-09T19:22:13.228Z,55.20
2023-05-09T19:23:13.270Z,53.45
2023-05-09T19:24:13.217Z,52.08
2023-05-09T19:25:13.218Z,57.44
2023-05-09T19:26:13.211Z,54.02
2023-05-09T19:27:13.193Z,54.18
2023-05-09T19:28:13.189Z,56.18
2023-05-09T19:29:13.179Z,54.10
2023-05-09T19:30:13.298Z,52.32
2023-05-09T19:31:13.168Z,51.65
2023-05-09T19:32:13.165Z,52.71
2023-05-09T19:33:13.145Z,56.26
2023-05-09T19:34:13.134Z,53.72
2023-05-09T19:35:13.139Z,53.36
2023-05-09T19:36:13.159Z,53.25
2023-05-09T19:37:13.246Z,55.18
2023-05-09T19:38:13.257Z,54.31
2023-05-09T19:39:13.314Z,51.69
2023-05-09T19:40:13.471Z,49.24
2023-05-09T19:41:13.404Z,52.37
2023-05-09T19:42:13.563Z,52.14
2023-05-09T19:43:13.634Z,54.87